Time;durP1;ratioP1;P1;durP2;ratioP2;P2;SDS_P1;SDS_P2;PMS_P1;PMS_P2;Temp;Humidity;BMP_temperature;BMP_pressure;BME280_temperature;BME280_humidity;BME280_pressure;Samples;Min_cycle;Max_cycle;Signal;HPM_P1;HPM_P2
2023/03/28 00:01:00;;;;;;;3.08;1.08;;;;;;;0.41;92.79;102701.75;6133679;23;20421;-80
2023/03/28 00:03:28;;;;;;;8.85;1.60;;;;;;;0.39;92.69;102706.56;6159491;23;20018;-79
2023/03/28 00:05:59;;;;;;;2.17;1.45;;;;;;;0.38;92.31;102697.19;6159727;23;20022;-81
2023/03/28 00:08:27;;;;;;;5.88;1.48;;;;;;;0.36;92.45;102700.13;6159105;23;20463;-80
2023/03/28 00:11:02;;;;;;;3.40;1.52;;;;;;;0.35;92.54;102700.44;6159609;23;20021;-80
2023/03/28 00:13:29;;;;;;;7.05;1.75;;;;;;;0.32;92.32;102697.38;6159208;23;20508;-80
2023/03/28 00:16:00;;;;;;;4.53;1.30;;;;;;;0.29;92.54;102702.47;6133347;23;20024;-80
2023/03/28 00:18:28;;;;;;;;;;;;;;;0.28;92.01;102693.84;6159891;23;20092;-79
2023/03/28 00:20:55;;;;;;;2.92;1.20;;;;;;;0.26;92.49;102700.50;6133830;23;20331;-80
2023/03/28 00:23:21;;;;;;;5.00;1.58;;;;;;;0.24;92.86;102703.44;6158956;23;20472;-80
2023/03/28 00:25:48;;;;;;;4.47;1.50;;;;;;;0.21;92.65;102698.84;6159150;23;20022;-80
2023/03/28 00:28:14;;;;;;;2.88;1.15;;;;;;;0.21;92.62;102703.31;6159244;23;20014;-80
2023/03/28 00:30:41;;;;;;;8.25;1.55;;;;;;;0.20;92.65;102710.41;6159149;23;20022;-80
2023/03/28 00:33:08;;;;;;;5.32;1.80;;;;;;;0.20;92.94;102697.31;6133135;23;20041;-80
2023/03/28 00:35:34;;;;;;;3.28;1.45;;;;;;;0.20;93.04;102699.94;6133058;23;20018;-80
2023/03/28 00:38:02;;;;;;;1.63;1.48;;;;;;;0.18;92.78;102704.72;6133249;23;20566;-80
2023/03/28 00:40:34;;;;;;;2.42;1.27;;;;;;;0.13;92.51;102710.16;6105465;22;20090;-77
2023/03/28 00:43:01;;;;;;;3.78;1.30;;;;;;;0.12;92.78;102705.22;6188727;23;20010;-77
2023/03/28 00:45:28;;;;;;;2.20;1.35;;;;;;;0.11;92.63;102704.47;6189201;23;20018;-77
2023/03/28 00:48:00;;;;;;;5.30;1.55;;;;;;;0.09;92.70;102700.63;6191576;23;20024;-77
2023/03/28 00:50:33;;;;;;;3.10;1.45;;;;;;;0.05;92.30;102704.97;6189203;23;20021;-77
2023/03/28 00:53:03;;;;;;;4.80;1.63;;;;;;;0.00;92.54;102706.69;6189358;23;20020;-77
2023/03/28 00:55:38;;;;;;;6.75;1.40;;;;;;;-0.01;92.49;102699.19;6188444;23;20093;-76
2023/03/28 00:58:10;;;;;;;3.65;1.55;;;;;;;-0.05;92.29;102699.03;6189405;23;20014;-77
2023/03/28 01:00:40;;;;;;;8.23;1.58;;;;;;;-0.07;92.35;102703.84;6189276;23;20021;-77
2023/03/28 01:03:07;;;;;;;4.57;1.38;;;;;;;-0.10;92.21;102701.09;6167707;23;20014;-77
2023/03/28 01:05:35;;;;;;;7.03;1.90;;;;;;;-0.14;92.23;102700.19;6161847;23;20443;-77
2023/03/28 01:08:09;;;;;;;6.18;1.48;;;;;;;-0.18;92.18;102700.06;6162430;23;20026;-77
2023/03/28 01:10:36;;;;;;;4.38;1.00;;;;;;;-0.21;92.01;102697.28;6161720;23;20025;-77
2023/03/28 01:13:04;;;;;;;6.50;1.70;;;;;;;-0.25;91.95;102701.63;6162651;23;20045;-77
2023/03/28 01:15:31;;;;;;;5.53;1.48;;;;;;;-0.28;92.55;102697.03;6161975;23;20018;-77
2023/03/28 01:18:02;;;;;;;8.30;1.35;;;;;;;-0.31;92.37;102701.03;6162143;23;20025;-77
2023/03/28 01:20:34;;;;;;;2.13;1.23;;;;;;;-0.32;92.55;102689.03;6169816;23;20021;-77
2023/03/28 01:23:24;;;;;;;2.05;1.33;;;;;;;-0.35;92.78;102695.69;6162949;23;20301;-77
2023/03/28 01:26:17;;;;;;;4.05;1.27;;;;;;;-0.38;92.69;102693.69;6188891;23;20018;-77
2023/03/28 01:29:03;;;;;;;6.10;1.30;;;;;;;-0.41;93.12;102688.34;6161919;23;20032;-77
2023/03/28 01:32:05;;;;;;;1.27;1.15;;;;;;;-0.42;93.24;102687.59;6162099;23;20093;-77
2023/03/28 01:35:11;;;;;;;6.10;1.58;;;;;;;-0.45;92.79;102677.75;6141531;23;20096;-76
2023/03/28 01:37:46;;;;;;;1.30;1.20;;;;;;;-0.45;93.37;102680.34;6163136;23;20042;-78
2023/03/28 01:40:19;;;;;;;2.72;1.33;;;;;;;-0.47;93.18;102676.53;6161156;23;20178;-78
2023/03/28 01:42:56;;;;;;;2.55;1.20;;;;;;;-0.49;93.20;102676.84;6161723;23;20524;-78
2023/03/28 01:45:47;;;;;;;4.70;1.30;;;;;;;-0.53;93.22;102678.56;6189145;23;20021;-79
2023/03/28 01:48:34;;;;;;;5.28;1.42;;;;;;;-0.53;93.07;102683.03;6161763;23;20450;-78
2023/03/28 01:51:37;;;;;;;3.20;1.35;;;;;;;-0.55;93.33;102675.47;6163381;23;20072;-78
2023/03/28 01:54:18;;;;;;;4.93;1.73;;;;;;;-0.58;93.17;102673.50;6188375;23;20026;-78
2023/03/28 01:56:50;;;;;;;7.55;1.50;;;;;;;-0.63;92.95;102670.28;6188861;23;20491;-78
2023/03/28 02:00:11;;;;;;;3.08;1.50;;;;;;;-0.69;93.07;102667.84;6161970;23;20056;-78
2023/03/28 02:02:48;;;;;;;3.53;1.25;;;;;;;-0.76;92.84;102675.41;6067631;23;20477;-78
2023/03/28 02:05:25;;;;;;;4.28;1.58;;;;;;;-0.72;93.09;102667.72;6043865;23;20111;-78
2023/03/28 02:07:54;;;;;;;2.63;1.27;;;;;;;-0.70;93.22;102668.16;6072670;23;20083;-77
2023/03/28 02:10:45;;;;;;;2.55;1.10;;;;;;;-0.68;93.93;102666.78;6043953;23;20147;-78
2023/03/28 02:13:42;;;;;;;6.82;1.80;;;;;;;-0.73;93.09;102666.94;6066516;23;20028;-78
2023/03/28 02:16:31;;;;;;;2.20;1.67;;;;;;;-0.74;93.60;102659.41;6067568;23;20540;-78
2023/03/28 02:19:06;;;;;;;1.20;1.10;;;;;;;-0.78;93.75;102658.50;6068345;23;20019;-78
2023/03/28 02:21:50;;;;;;;2.25;1.10;;;;;;;-0.79;93.38;102656.97;6043533;23;20019;-77
2023/03/28 02:24:39;;;;;;;3.78;1.40;;;;;;;-0.84;93.53;102663.16;6067598;23;20035;-77
2023/03/28 02:27:10;;;;;;;3.33;1.60;;;;;;;-0.86;93.53;102651.50;6068042;23;20113;-77
2023/03/28 02:29:54;;;;;;;3.78;1.67;;;;;;;-0.86;93.92;102661.94;6068365;23;20051;-77
2023/03/28 02:32:33;;;;;;;7.55;1.40;;;;;;;-0.88;94.15;102658.88;6043456;23;20027;-77
2023/03/28 02:35:04;;;;;;;1.98;1.30;;;;;;;-0.90;94.24;102653.97;6043827;23;20024;-77
2023/03/28 02:37:53;;;;;;;3.95;1.38;;;;;;;-0.91;94.04;102651.66;6042997;23;20027;-77
2023/03/28 02:40:31;;;;;;;3.38;1.70;;;;;;;-0.94;94.45;102655.66;6149068;23;20024;-77
2023/03/28 02:43:23;;;;;;;1.77;1.23;;;;;;;-0.95;94.49;102654.13;6188965;23;20014;-77
2023/03/28 02:46:08;;;;;;;3.20;1.42;;;;;;;-0.96;94.70;102659.69;6188382;23;20036;-77
2023/03/28 02:48:56;;;;;;;1.38;1.27;;;;;;;-0.99;94.25;102663.69;6161867;23;20022;-77
2023/03/28 02:51:30;;;;;;;4.60;1.55;;;;;;;-1.02;94.60;102662.47;6161347;23;20096;-77
2023/03/28 02:54:23;;;;;;;1.35;1.25;;;;;;;-1.03;94.41;102665.38;6188704;23;20103;-77
2023/03/28 02:57:23;;;;;;;;;;;;;;;-1.01;94.72;102671.06;6186393;23;20024;-77
2023/03/28 03:00:01;;;;;;;7.97;1.50;;;;;;;-1.06;94.54;102672.00;6161521;23;20334;-77
2023/03/28 03:02:27;;;;;;;4.57;1.35;;;;;;;-1.08;94.63;102662.94;6188557;23;20014;-77
2023/03/28 03:04:56;;;;;;;4.57;1.27;;;;;;;-1.06;94.41;102669.38;6161434;23;20022;-77
2023/03/28 03:07:23;;;;;;;5.70;1.98;;;;;;;-1.07;94.65;102667.09;6188303;23;20021;-78
2023/03/28 03:09:52;;;;;;;5.10;1.67;;;;;;;-1.09;94.50;102671.84;6161322;23;20033;-77
2023/03/28 03:12:20;;;;;;;5.82;1.85;;;;;;;-1.10;94.85;102667.72;6137723;23;20037;-77
2023/03/28 03:14:49;;;;;;;6.68;1.95;;;;;;;-1.09;94.77;102662.16;6161479;23;20028;-77
2023/03/28 03:17:34;;;;;;;3.00;1.77;;;;;;;-1.12;94.88;102662.78;6188054;23;20021;-77
2023/03/28 03:20:05;;;;;;;5.22;2.25;;;;;;;-1.10;95.19;102668.47;6187796;23;20025;-77
2023/03/28 03:22:36;;;;;;;2.95;1.63;;;;;;;-1.07;94.83;102664.47;6161376;23;20021;-77
2023/03/28 03:25:05;;;;;;;3.45;1.52;;;;;;;-1.07;95.45;102662.63;6137266;23;20068;-77
2023/03/28 03:27:39;;;;;;;3.38;1.80;;;;;;;-1.06;95.10;102661.53;6164870;23;20108;-77
2023/03/28 03:30:10;;;;;;;8.90;1.88;;;;;;;-1.06;95.28;102661.53;6162867;23;20053;-77
2023/03/28 03:32:59;;;;;;;1.95;1.70;;;;;;;-1.06;95.21;102652.94;6173066;23;20103;-77
2023/03/28 03:35:32;;;;;;;2.35;1.80;;;;;;;-1.07;95.11;102661.84;6161974;23;20017;-78
2023/03/28 03:38:02;;;;;;;3.90;1.95;;;;;;;-1.07;95.67;102660.00;6139250;23;20366;-77
2023/03/28 03:40:29;;;;;;;7.55;2.00;;;;;;;-1.07;95.95;102662.63;6161916;23;20021;-78
2023/03/28 03:42:56;;;;;;;4.43;2.13;;;;;;;-1.08;95.78;102653.25;6164087;23;20022;-78
2023/03/28 03:45:23;;;;;;;3.67;1.95;;;;;;;-1.08;96.05;102657.72;6162525;23;20013;-77
2023/03/28 03:47:49;;;;;;;6.57;2.10;;;;;;;-1.13;95.74;102655.25;6137969;23;20496;-77
2023/03/28 03:50:16;;;;;;;3.35;2.10;;;;;;;-1.19;96.05;102657.28;6161657;23;20041;-77
2023/03/28 03:52:43;;;;;;;6.20;2.20;;;;;;;-1.21;95.42;102653.47;6162280;23;20089;-77
2023/03/28 03:55:10;;;;;;;5.45;1.83;;;;;;;-1.29;95.62;102649.78;6162485;23;20102;-77
2023/03/28 03:57:39;;;;;;;5.18;2.20;;;;;;;-1.26;95.53;102657.00;6164946;23;20439;-77
2023/03/28 04:00:10;;;;;;;5.70;1.75;;;;;;;-1.27;96.03;102652.09;6162352;23;20018;-77
2023/03/28 04:02:46;;;;;;;3.30;2.08;;;;;;;-1.27;95.30;102659.94;6189197;23;20076;-77
2023/03/28 04:05:31;;;;;;;4.10;1.92;;;;;;;-1.28;95.90;102653.16;6141145;23;20469;-77
2023/03/28 04:08:00;;;;;;;6.15;2.20;;;;;;;-1.29;96.25;102649.03;6162080;23;20025;-77
2023/03/28 04:10:32;;;;;;;5.57;2.17;;;;;;;-1.29;96.20;102654.25;6161409;23;20017;-77
2023/03/28 04:12:59;;;;;;;3.20;2.17;;;;;;;-1.34;96.18;102657.78;6168716;23;20024;-77
2023/03/28 04:15:26;;;;;;;4.38;2.28;;;;;;;-1.39;95.81;102658.72;6162516;23;20017;-77
2023/03/28 04:18:12;;;;;;;8.93;2.33;;;;;;;-1.37;96.25;102663.63;6188343;23;20447;-76
2023/03/28 04:20:45;;;;;;;5.95;2.08;;;;;;;-1.37;96.54;102650.56;6162062;23;20053;-77
2023/03/28 04:23:12;;;;;;;6.72;2.30;;;;;;;-1.38;96.78;102656.88;6188880;23;20014;-76
2023/03/28 04:25:40;;;;;;;4.53;1.98;;;;;;;-1.40;96.04;102653.81;6162138;23;20021;-76
2023/03/28 04:28:12;;;;;;;2.80;2.15;;;;;;;-1.43;96.63;102652.59;6162072;23;20430;-77
2023/03/28 04:30:57;;;;;;;5.18;1.98;;;;;;;-1.47;96.07;102648.28;6162832;23;20069;-76
2023/03/28 04:33:47;;;;;;;4.45;1.98;;;;;;;-1.53;96.04;102654.75;6166668;23;20039;-76
2023/03/28 04:36:17;;;;;;;3.50;1.98;;;;;;;-1.50;96.33;102641.84;6162006;23;20104;-79
2023/03/28 04:38:57;;;;;;;1.98;1.85;;;;;;;-1.53;96.32;102642.44;6188639;23;20021;-76
2023/03/28 04:41:54;;;;;;;5.43;2.53;;;;;;;-1.52;96.40;102651.06;6068157;23;20035;-76
2023/03/28 04:44:28;;;;;;;4.15;2.25;;;;;;;-1.54;96.08;102650.59;6046037;23;20051;-75
2023/03/28 04:47:00;;;;;;;3.28;2.30;;;;;;;-1.55;95.94;102654.28;6043266;23;20023;-76
2023/03/28 04:49:27;;;;;;;5.95;1.95;;;;;;;-1.59;95.92;102654.13;6043711;23;20525;-76
2023/03/28 04:51:54;;;;;;;5.93;2.78;;;;;;;-1.60;96.22;102649.25;6044016;23;20067;-75
2023/03/28 04:54:20;;;;;;;2.78;2.08;;;;;;;-1.62;95.76;102652.16;6068106;23;20063;-76
2023/03/28 04:56:47;;;;;;;4.88;2.20;;;;;;;-1.65;95.90;102649.41;6068225;23;20054;-76
2023/03/28 04:59:19;;;;;;;;;;;;;;;-1.65;95.76;102654.63;6044460;23;20019;-75
2023/03/28 05:01:48;;;;;;;6.78;2.90;;;;;;;-1.69;95.73;102654.47;6047504;23;19932;-78
2023/03/28 05:04:32;;;;;;;2.38;2.17;;;;;;;-1.67;96.08;102659.41;6067143;23;20114;-75
2023/03/28 05:07:03;;;;;;;6.00;2.60;;;;;;;-1.69;95.92;102651.88;6043873;23;20024;-78
2023/03/28 05:09:32;;;;;;;4.43;2.35;;;;;;;-1.69;95.75;102662.31;6043196;23;20019;-76
2023/03/28 05:11:59;;;;;;;5.03;2.85;;;;;;;-1.68;96.23;102658.63;6043858;23;20068;-75
2023/03/28 05:14:25;;;;;;;3.08;2.40;;;;;;;-1.67;96.15;102664.63;6067904;23;20043;-75
2023/03/28 05:17:05;;;;;;;2.33;2.08;;;;;;;-1.69;96.00;102662.31;6047334;23;20411;-76
2023/03/28 05:19:52;;;;;;;2.45;2.17;;;;;;;-1.69;95.95;102664.94;6161432;23;20065;-76
2023/03/28 05:22:21;;;;;;;11.63;3.33;;;;;;;-1.67;96.64;102664.63;6187860;23;20017;-75
2023/03/28 05:24:48;;;;;;;9.18;2.70;;;;;;;-1.67;96.60;102673.22;6161431;23;20390;-76
2023/03/28 05:27:16;;;;;;;4.90;2.30;;;;;;;-1.67;96.45;102669.84;6161433;23;20026;-78
2023/03/28 05:29:43;;;;;;;3.28;2.15;;;;;;;-1.69;95.99;102673.53;6161562;23;20056;-75
2023/03/28 05:32:11;;;;;;;4.70;2.75;;;;;;;-1.67;96.32;102681.06;6164308;23;20069;-78
2023/03/28 05:34:39;;;;;;;5.63;2.42;;;;;;;-1.64;96.20;102683.06;6161600;23;20025;-76
2023/03/28 05:37:05;;;;;;;7.25;2.78;;;;;;;-1.65;96.16;102678.91;6161556;23;20020;-76
2023/03/28 05:39:46;;;;;;;3.65;2.33;;;;;;;-1.60;96.54;102677.97;6161589;23;20021;-76
2023/03/28 05:42:13;;;;;;;3.85;2.70;;;;;;;-1.54;96.18;102681.94;6161284;23;20658;-78
2023/03/28 05:44:39;;;;;;;3.13;2.72;;;;;;;-1.52;96.52;102680.56;6161312;23;20028;-78
2023/03/28 05:47:24;;;;;;;4.43;3.08;;;;;;;-1.46;96.60;102689.00;6191555;23;20026;-76
2023/03/28 05:49:51;;;;;;;3.85;2.97;;;;;;;-1.43;96.82;102689.16;6188089;23;20020;-78
2023/03/28 05:52:20;;;;;;;7.38;3.08;;;;;;;-1.37;96.92;102685.31;6161343;23;20021;-75
2023/03/28 05:54:47;;;;;;;7.38;3.13;;;;;;;-1.30;96.79;102694.53;6161561;23;20021;-78
2023/03/28 05:57:20;;;;;;;7.65;3.00;;;;;;;-1.24;96.92;102680.22;6188059;23;20013;-78
2023/03/28 05:59:47;;;;;;;4.78;2.83;;;;;;;-1.20;97.39;102679.25;6161656;23;20061;-76
2023/03/28 06:02:19;;;;;;;3.67;3.17;;;;;;;-1.12;97.20;102688.16;6163676;23;20136;-76
2023/03/28 06:04:46;;;;;;;6.85;3.78;;;;;;;-1.08;96.96;102687.22;6138170;23;20033;-78
2023/03/28 06:07:13;;;;;;;4.93;3.67;;;;;;;-1.01;97.05;102686.75;6162043;23;20538;-76
2023/03/28 06:09:41;;;;;;;4.80;3.35;;;;;;;-0.93;96.71;102691.19;6162405;23;20415;-78
2023/03/28 06:12:09;;;;;;;4.45;4.05;;;;;;;-0.83;97.10;102690.09;6162257;23;20026;-78
2023/03/28 06:14:41;;;;;;;6.45;3.38;;;;;;;-0.75;96.72;102690.03;6161978;23;20474;-78
2023/03/28 06:17:17;;;;;;;4.97;4.25;;;;;;;-0.65;96.83;102690.75;6164154;23;20040;-79
2023/03/28 06:19:48;;;;;;;8.13;3.83;;;;;;;-0.52;97.03;102693.16;6162848;23;20013;-76
2023/03/28 06:22:15;;;;;;;7.90;4.18;;;;;;;0.12;97.45;102690.28;6162180;23;20018;-75
2023/03/28 06:24:47;;;;;;;5.82;4.50;;;;;;;1.30;96.00;102694.94;6162923;23;20373;-77
2023/03/28 06:27:22;;;;;;;9.35;4.75;;;;;;;1.72;92.45;102692.06;6162448;23;20420;-75
2023/03/28 06:29:49;;;;;;;7.47;3.70;;;;;;;1.58;92.44;102689.81;6162351;23;20049;-76
2023/03/28 06:32:18;;;;;;;8.68;4.47;;;;;;;2.36;90.95;102685.97;6163515;23;20028;-75
2023/03/28 06:34:45;;;;;;;8.10;4.57;;;;;;;3.20;88.50;102691.81;6163107;23;20025;-76
2023/03/28 06:37:12;;;;;;;15.82;4.78;;;;;;;3.62;84.90;102690.09;6162157;23;20057;-75
2023/03/28 06:39:59;;;;;;;6.55;4.35;;;;;;;3.93;82.90;102691.91;6188161;23;20388;-75
2023/03/28 06:42:26;;;;;;;8.63;4.38;;;;;;;3.84;82.20;102693.97;6188406;23;20017;-75
2023/03/28 06:44:59;;;;;;;7.03;4.75;;;;;;;3.76;81.90;102694.16;6162312;23;20443;-77
2023/03/28 06:47:40;;;;;;;10.23;4.50;;;;;;;3.63;82.13;102688.22;6139921;23;20021;-76
2023/03/28 06:50:07;;;;;;;7.55;4.88;;;;;;;3.45;82.67;102697.63;6189063;23;20024;-76
2023/03/28 06:52:48;;;;;;;9.95;4.68;;;;;;;3.17;84.02;102697.75;6162756;23;20018;-76
2023/03/28 06:55:15;;;;;;;7.30;3.92;;;;;;;3.03;85.13;102698.19;6161870;23;20023;-75
2023/03/28 06:57:41;;;;;;;5.00;4.32;;;;;;;3.01;85.60;102693.25;6161090;23;20056;-75
2023/03/28 07:00:23;;;;;;;6.05;3.65;;;;;;;2.97;86.00;102695.03;6162064;23;20350;-76
2023/03/28 07:03:08;;;;;;;8.85;4.40;;;;;;;2.92;86.38;102697.91;6188347;23;20542;-75
2023/03/28 07:05:41;;;;;;;6.40;3.80;;;;;;;2.83;86.57;102701.81;6163091;23;20084;-75
2023/03/28 07:08:09;;;;;;;7.65;4.13;;;;;;;2.70;87.06;102695.88;6189124;23;20025;-75
2023/03/28 07:10:38;;;;;;;7.40;4.25;;;;;;;2.65;87.15;102701.38;6162624;23;20092;-76
2023/03/28 07:13:05;;;;;;;6.35;4.00;;;;;;;2.55;87.66;102702.63;6161833;23;20031;-75
2023/03/28 07:15:33;;;;;;;10.30;4.22;;;;;;;2.53;87.95;102706.69;6162265;23;20046;-76
2023/03/28 07:18:00;;;;;;;11.57;4.20;;;;;;;2.54;88.32;102703.72;6189057;23;20021;-76
2023/03/28 07:20:27;;;;;;;7.80;4.57;;;;;;;2.58;88.19;102699.31;6162215;23;20076;-75
2023/03/28 07:22:54;;;;;;;6.75;4.22;;;;;;;2.64;88.68;102697.22;6162274;23;20630;-76
2023/03/28 07:25:20;;;;;;;6.13;3.80;;;;;;;2.74;88.36;102704.63;6161596;23;20545;-76
2023/03/28 07:27:47;;;;;;;7.13;4.00;;;;;;;2.85;88.33;102703.00;6161766;23;20473;-76
2023/03/28 07:30:14;;;;;;;11.25;4.40;;;;;;;3.01;88.24;102695.88;6161674;23;20085;-76
2023/03/28 07:32:40;;;;;;;8.63;3.75;;;;;;;3.22;88.15;102692.97;6162063;23;20454;-76
2023/03/28 07:35:22;;;;;;;9.40;4.00;;;;;;;3.43;87.55;102697.97;6140476;23;20021;-76
2023/03/28 07:37:50;;;;;;;9.18;4.47;;;;;;;3.60;87.50;102694.94;6162514;23;20439;-76
2023/03/28 07:40:30;;;;;;;12.93;4.22;;;;;;;3.82;86.45;102705.94;6160834;23;20080;-76
2023/03/28 07:42:57;;;;;;;10.80;3.55;;;;;;;3.87;85.89;102706.44;6162044;23;20029;-76
2023/03/28 07:45:23;;;;;;;12.10;4.13;;;;;;;4.03;85.76;102696.59;6188474;23;20020;-75
2023/03/28 07:47:51;;;;;;;9.20;3.67;;;;;;;4.20;84.68;102702.56;6161958;23;20025;-76
2023/03/28 07:50:18;;;;;;;10.02;3.80;;;;;;;4.34;84.41;102698.34;6161723;23;20072;-76
2023/03/28 07:52:46;;;;;;;5.82;3.53;;;;;;;4.53;82.80;102704.69;6162628;23;20513;-78
2023/03/28 07:55:13;;;;;;;11.50;3.80;;;;;;;4.63;82.19;102704.13;6189786;23;20025;-76
2023/03/28 07:57:45;;;;;;;7.63;3.75;;;;;;;4.79;81.75;102709.28;6139163;23;20101;-79
2023/03/28 08:00:27;;;;;;;4.68;3.22;;;;;;;4.86;80.58;102704.09;6164608;23;20018;-80
2023/03/28 08:03:15;;;;;;;10.40;3.40;;;;;;;4.80;79.93;102708.91;6166176;23;20097;-76
2023/03/28 08:05:50;;;;;;;4.65;3.42;;;;;;;4.84;79.40;102704.47;6161642;23;20049;-75
2023/03/28 08:08:19;;;;;;;14.27;4.07;;;;;;;4.89;78.60;102704.16;6161284;23;20021;-74
2023/03/28 08:10:57;;;;;;;6.72;3.38;;;;;;;5.01;77.80;102704.00;6159794;23;20017;-75
2023/03/28 08:13:25;;;;;;;6.88;2.63;;;;;;;5.18;76.00;102707.28;6161494;23;20025;-77
2023/03/28 08:15:56;;;;;;;14.90;3.63;;;;;;;5.38;75.81;102707.94;6163130;23;20076;-79
2023/03/28 08:18:25;;;;;;;4.40;2.80;;;;;;;5.53;74.54;102709.66;6162475;23;20056;-74
2023/03/28 08:21:00;;;;;;;4.88;3.13;;;;;;;5.67;74.46;102702.69;6162792;23;20013;-75
2023/03/28 08:23:30;;;;;;;12.35;7.13;;;;;;;5.73;73.55;102700.50;6162686;23;20025;-75
2023/03/28 08:26:12;;;;;;;;;;;;;;;5.66;74.59;102693.22;6163698;23;20134;-76
2023/03/28 08:28:44;;;;;;;6.45;2.83;;;;;;;5.64;72.32;102697.34;6163145;23;20008;-77
2023/03/28 08:31:13;;;;;;;4.90;2.70;;;;;;;5.66;72.42;102703.81;6162612;23;20028;-79
2023/03/28 08:33:43;;;;;;;7.50;3.28;;;;;;;5.75;72.91;102695.63;6163636;23;20076;-77
2023/03/28 08:36:13;;;;;;;4.97;3.15;;;;;;;5.85;71.92;102695.00;6162063;23;20024;-77
2023/03/28 08:38:46;;;;;;;4.45;3.03;;;;;;;5.92;71.43;102694.34;6162912;23;20470;-77
2023/03/28 08:41:39;;;;;;;9.70;3.00;;;;;;;6.07;71.66;102698.66;6186894;23;20026;-76
2023/03/28 08:44:15;;;;;;;6.15;3.10;;;;;;;6.15;70.63;102704.81;6189909;23;20017;-75
2023/03/28 08:46:44;;;;;;;5.80;4.05;;;;;;;6.23;69.74;102703.75;6163593;23;20017;-76
2023/03/28 08:49:15;;;;;;;6.80;2.80;;;;;;;6.41;69.88;102698.63;6163036;23;20463;-79
2023/03/28 08:51:46;;;;;;;9.00;3.10;;;;;;;6.54;68.84;102691.97;6190090;23;20045;-78
2023/03/28 08:54:26;;;;;;;7.50;3.15;;;;;;;6.52;69.29;102694.97;6162300;23;20026;-80
2023/03/28 08:56:55;;;;;;;6.60;3.33;;;;;;;6.52;68.41;102700.28;6192859;23;20061;-80
2023/03/28 08:59:30;;;;;;;3.45;2.90;;;;;;;6.61;67.58;102694.69;6190016;23;20065;-79
2023/03/28 09:01:57;;;;;;;6.68;3.15;;;;;;;6.80;68.05;102699.75;6163822;23;20030;-81
2023/03/28 09:04:34;;;;;;;8.50;3.28;;;;;;;7.06;67.10;102690.91;6162979;23;20485;-81
2023/03/28 09:07:34;;;;;;;9.48;2.95;;;;;;;7.26;66.55;102688.75;6162541;23;20018;-79
2023/03/28 09:10:24;;;;;;;8.02;2.85;;;;;;;7.48;66.99;102690.41;6162945;23;20025;-79
2023/03/28 09:13:34;;;;;;;4.85;2.90;;;;;;;7.58;66.20;102689.72;6166943;23;20064;-76
2023/03/28 09:16:28;;;;;;;3.88;2.70;;;;;;;7.72;65.38;102680.28;6138997;23;20463;-76
2023/03/28 09:19:26;;;;;;;7.57;2.53;;;;;;;7.73;63.29;102685.22;6141578;23;20076;-77
2023/03/28 09:22:53;;;;;;;8.18;2.75;;;;;;;7.80;63.36;102679.97;6189351;23;20025;-76
2023/03/28 09:25:31;;;;;;;12.75;3.22;;;;;;;7.69;62.33;102685.22;6162562;23;20404;-76
2023/03/28 09:28:36;;;;;;;4.85;2.63;;;;;;;7.52;62.76;102685.13;6163744;23;20036;-76
2023/03/28 09:31:10;;;;;;;5.88;2.75;;;;;;;7.32;61.23;102674.78;6163525;23;20056;-76
2023/03/28 09:33:41;;;;;;;1.83;1.70;;;;;;;7.22;60.44;102685.31;6163643;23;20466;-77
2023/03/28 09:36:15;;;;;;;5.65;2.00;;;;;;;7.10;60.41;102680.34;6162562;23;20022;-76
2023/03/28 09:38:57;;;;;;;3.58;2.40;;;;;;;7.17;61.73;102673.22;6162129;23;20148;-77
2023/03/28 09:41:45;;;;;;;7.85;2.83;;;;;;;7.28;60.12;102675.91;6187561;23;20022;-77
2023/03/28 09:44:39;;;;;;;7.75;2.50;;;;;;;7.50;60.79;102672.25;6190321;23;20017;-76
2023/03/28 09:47:58;;;;;;;6.00;2.30;;;;;;;7.71;59.08;102671.59;6189433;23;20112;-77
2023/03/28 09:50:28;;;;;;;5.13;2.60;;;;;;;7.84;58.96;102664.06;6162477;23;20583;-76
2023/03/28 09:52:58;;;;;;;4.90;2.58;;;;;;;7.92;57.84;102661.06;6162317;23;20069;-76
2023/03/28 09:55:29;;;;;;;5.68;2.80;;;;;;;7.95;58.52;102660.31;6189650;23;20025;-76
2023/03/28 09:58:09;;;;;;;3.83;2.90;;;;;;;8.07;59.58;102651.25;6188006;23;20371;-76
2023/03/28 10:00:54;;;;;;;10.80;3.13;;;;;;;8.00;58.19;102653.88;6190338;23;20038;-77
2023/03/28 10:03:52;;;;;;;5.05;2.83;;;;;;;8.16;57.95;102642.94;6188881;23;20093;-77
2023/03/28 10:06:28;;;;;;;3.17;2.45;;;;;;;8.12;56.55;102631.53;6186959;23;20021;-78
2023/03/28 10:09:12;;;;;;;3.92;2.50;;;;;;;8.17;57.87;102642.56;6162928;23;20041;-81
2023/03/28 10:11:53;;;;;;;6.28;2.13;;;;;;;7.95;56.23;102639.09;6141039;23;20021;-77
2023/03/28 10:14:45;;;;;;;4.07;2.50;;;;;;;7.89;58.34;102637.19;6163755;23;20021;-77
2023/03/28 10:17:41;;;;;;;8.80;2.85;;;;;;;7.97;56.29;102626.22;6189308;23;20021;-78
2023/03/28 10:20:16;;;;;;;7.95;2.28;;;;;;;7.93;57.83;102619.41;6137341;23;20025;-77
2023/03/28 10:22:48;;;;;;;8.13;3.17;;;;;;;7.99;58.20;102618.66;6162537;23;20109;-76
2023/03/28 10:25:19;;;;;;;5.32;2.90;;;;;;;7.96;57.18;102619.41;6162502;23;20080;-78
2023/03/28 10:27:50;;;;;;;3.38;2.50;;;;;;;7.94;57.55;102613.72;6163252;23;20088;-76
2023/03/28 10:30:28;;;;;;;4.70;2.53;;;;;;;8.14;58.10;102614.13;6162546;23;20022;-75
2023/03/28 10:33:15;;;;;;;4.20;2.17;;;;;;;8.15;56.82;102605.03;6163109;23;20025;-76
2023/03/28 10:36:05;;;;;;;7.18;2.50;;;;;;;8.10;56.29;102601.97;6139818;23;20295;-78
2023/03/28 10:38:46;;;;;;;5.13;1.90;;;;;;;7.90;56.51;102599.69;6137427;23;20437;-77
2023/03/28 10:41:36;;;;;;;11.00;2.00;;;;;;;7.99;54.20;102596.69;6172848;23;20411;-76
2023/03/28 10:44:18;;;;;;;3.15;1.88;;;;;;;7.92;55.40;102597.41;6189366;23;20064;-76
2023/03/28 10:47:05;;;;;;;4.53;1.90;;;;;;;7.85;56.05;102591.34;6162319;23;20014;-78
2023/03/28 10:49:44;;;;;;;2.30;1.70;;;;;;;7.89;53.91;102594.75;6162403;23;20518;-77
2023/03/28 10:52:50;;;;;;;1.63;1.52;;;;;;;7.94;55.02;102586.44;6138271;23;20041;-78
2023/03/28 10:55:31;;;;;;;2.15;1.30;;;;;;;7.94;52.46;102581.91;6162457;23;20053;-77
2023/03/28 10:58:32;;;;;;;1.42;1.33;;;;;;;7.98;52.53;102584.56;6162381;23;20017;-78
2023/03/28 11:01:08;;;;;;;4.45;1.33;;;;;;;8.06;52.85;102572.81;6189247;23;20025;-78
2023/03/28 11:04:09;;;;;;;2.47;1.58;;;;;;;8.10;53.95;102568.25;6162358;23;20115;-77
2023/03/28 11:06:47;;;;;;;4.90;1.33;;;;;;;8.09;53.63;102572.03;6163009;23;20089;-79
2023/03/28 11:09:20;;;;;;;1.52;1.15;;;;;;;8.09;52.92;102564.09;6161908;23;20069;-79
2023/03/28 11:12:21;;;;;;;2.42;1.55;;;;;;;8.21;53.94;102563.72;6188565;23;20030;-78
2023/03/28 11:15:21;;;;;;;3.63;1.50;;;;;;;8.48;54.75;102550.09;6162434;23;20443;-76
2023/03/28 11:18:12;;;;;;;4.90;1.55;;;;;;;8.59;53.69;102545.53;6162787;23;20527;-75
2023/03/28 11:20:50;;;;;;;2.53;1.42;;;;;;;8.78;53.20;102550.44;6189161;23;20121;-76
2023/03/28 11:23:43;;;;;;;3.90;2.30;;;;;;;8.79;54.53;102540.59;6161847;23;20046;-76
2023/03/28 11:26:28;;;;;;;5.80;1.98;;;;;;;8.59;51.54;102537.56;6188996;23;20025;-76
2023/03/28 11:29:19;;;;;;;2.00;1.30;;;;;;;8.42;51.06;102530.38;6188949;23;20538;-76
2023/03/28 11:31:57;;;;;;;3.00;1.48;;;;;;;8.31;51.99;102517.09;6162700;23;20022;-76
2023/03/28 11:34:46;;;;;;;2.22;1.73;;;;;;;8.24;53.87;102517.88;6162028;23;20018;-77
2023/03/28 11:37:26;;;;;;;3.22;1.70;;;;;;;8.32;53.49;102519.41;6162228;23;20407;-80
2023/03/28 11:39:57;;;;;;;2.88;2.10;;;;;;;8.42;52.80;102514.44;6161116;23;20080;-77
2023/03/28 11:42:42;;;;;;;;;;;;;;;8.40;58.51;102514.84;6163004;23;20022;-76
2023/03/28 11:45:39;;;;;;;7.40;2.38;;;;;;;8.43;55.90;102515.97;6188404;23;19927;-76
2023/03/28 11:48:46;;;;;;;6.35;2.63;;;;;;;8.73;54.33;102516.31;6160069;23;20482;-76
2023/03/28 11:51:33;;;;;;;3.25;2.10;;;;;;;8.88;53.08;102504.50;6163412;23;20028;-76
2023/03/28 11:54:17;;;;;;;3.63;2.30;;;;;;;8.85;53.58;102502.59;6163932;23;20467;-76
2023/03/28 11:57:03;;;;;;;6.55;2.75;;;;;;;8.78;54.22;102500.00;6162712;23;20017;-77
2023/03/28 12:00:13;;;;;;;10.98;2.40;;;;;;;8.99;54.08;102494.59;6182864;23;20466;-76
2023/03/28 12:03:18;;;;;;;8.95;2.60;;;;;;;9.09;53.40;102484.31;6160249;23;20473;-76
2023/03/28 12:05:56;;;;;;;5.70;2.60;;;;;;;9.14;53.56;102474.03;6160862;23;20028;-77
2023/03/28 12:08:50;;;;;;;6.90;2.65;;;;;;;9.34;54.00;102479.63;6160560;23;20101;-76
2023/03/28 12:11:24;;;;;;;7.95;2.00;;;;;;;9.29;53.13;102477.38;6161071;23;20485;-77
2023/03/28 12:14:09;;;;;;;5.15;2.20;;;;;;;9.06;52.31;102463.84;6163918;23;20022;-76